createdAt,value
2018-05-25T00:09:56.541Z,5.30
2018-05-25T00:12:25.002Z,4.77
2018-05-25T00:14:53.397Z,5.17
2018-05-25T00:17:21.751Z,5.00
2018-05-25T00:19:50.129Z,5.00
2018-05-25T00:22:18.646Z,5.40
2018-05-25T00:24:47.099Z,5.27
2018-05-25T00:27:15.472Z,5.10
2018-05-25T00:29:43.887Z,5.63
2018-05-25T00:32:12.255Z,5.70
2018-05-25T00:34:41.038Z,5.27
2018-05-25T00:37:09.431Z,5.20
2018-05-25T00:39:37.909Z,5.53
2018-05-25T00:42:06.291Z,5.53
2018-05-25T00:44:34.671Z,5.77
2018-05-25T00:47:03.042Z,5.30
2018-05-25T00:49:31.415Z,4.83
2018-05-25T00:51:59.780Z,5.17
2018-05-25T00:54:28.737Z,4.50
2018-05-25T00:56:57.103Z,5.23
2018-05-25T00:59:25.868Z,5.67
2018-05-25T01:01:54.832Z,4.93
2018-05-25T01:04:23.288Z,5.13
2018-05-25T01:06:51.649Z,4.60
2018-05-25T01:09:20.025Z,5.47
2018-05-25T01:11:48.404Z,4.83
2018-05-25T01:14:16.778Z,4.80
2018-05-25T01:16:45.181Z,6.07
2018-05-25T01:19:13.741Z,5.03
2018-05-25T01:21:42.499Z,4.67
2018-05-25T01:24:10.877Z,5.53
2018-05-25T01:26:39.336Z,5.43
2018-05-25T01:29:07.702Z,5.00
2018-05-25T01:31:36.104Z,5.30
2018-05-25T01:34:04.572Z,5.27
2018-05-25T01:36:32.975Z,4.93
2018-05-25T01:39:01.358Z,4.40
2018-05-25T01:41:29.834Z,5.00
2018-05-25T01:43:58.194Z,5.10
2018-05-25T01:46:26.616Z,4.90
2018-05-25T01:48:54.982Z,5.03
2018-05-25T01:51:23.394Z,4.80
2018-05-25T01:53:51.763Z,5.70
2018-05-25T01:56:20.136Z,5.03
2018-05-25T01:58:48.905Z,5.27
2018-05-25T02:01:17.328Z,5.23
2018-05-25T02:03:45.698Z,5.00
2018-05-25T02:06:14.235Z,5.70
2018-05-25T02:08:42.720Z,5.00
2018-05-25T02:11:11.114Z,4.80
2018-05-25T02:13:39.485Z,5.00
2018-05-25T02:16:07.877Z,5.27
2018-05-25T02:18:36.658Z,5.00
2018-05-25T02:21:05.407Z,5.20
2018-05-25T02:23:33.908Z,5.70
2018-05-25T02:26:02.268Z,4.40
2018-05-25T02:28:30.723Z,5.20
2018-05-25T02:30:59.118Z,4.57
2018-05-25T02:33:27.497Z,5.40
2018-05-25T02:35:55.864Z,5.40
2018-05-25T02:38:24.231Z,5.60
2018-05-25T02:40:52.581Z,4.80
2018-05-25T02:43:21.379Z,4.90
2018-05-25T02:45:50.136Z,5.27
2018-05-25T02:48:18.627Z,5.80
2018-05-25T02:50:46.982Z,5.30
2018-05-25T02:53:15.388Z,5.23
2018-05-25T02:55:43.767Z,5.63
2018-05-25T02:58:12.153Z,5.20
2018-05-25T03:00:40.924Z,5.97
2018-05-25T03:03:09.416Z,4.90
2018-05-25T03:05:37.866Z,5.30
2018-05-25T03:08:06.266Z,4.80
2018-05-25T03:10:34.645Z,4.27
2018-05-25T03:13:03.047Z,5.50
2018-05-25T03:15:32.274Z,5.00
2018-05-25T03:18:00.669Z,4.67
2018-05-25T03:20:29.071Z,4.83
2018-05-25T03:22:58.247Z,4.70
2018-05-25T03:25:26.610Z,4.87
2018-05-25T03:27:54.991Z,4.80
2018-05-25T03:30:23.370Z,5.53
2018-05-25T03:32:51.751Z,4.83
2018-05-25T03:35:20.171Z,5.43
2018-05-25T03:37:48.697Z,5.17
2018-05-25T03:40:17.062Z,5.40
2018-05-25T03:42:45.829Z,4.20
2018-05-25T03:45:14.178Z,5.50
2018-05-25T03:47:42.555Z,4.90
2018-05-25T03:50:11.155Z,4.43
2018-05-25T03:52:45.563Z,4.47
2018-05-25T03:55:13.951Z,5.07
2018-05-25T03:57:42.445Z,4.77
2018-05-25T04:00:28.570Z,4.40
2018-05-25T04:02:57.354Z,4.60
2018-05-25T04:05:26.121Z,4.00
2018-05-25T04:07:56.140Z,4.20
2018-05-25T04:10:24.526Z,4.10
2018-05-25T04:12:52.911Z,4.13
2018-05-25T04:15:21.672Z,4.30
2018-05-25T04:17:50.052Z,4.87
2018-05-25T04:20:18.480Z,3.87
2018-05-25T04:22:46.871Z,3.57
2018-05-25T04:25:15.296Z,3.07
2018-05-25T04:27:43.746Z,4.13
2018-05-25T04:30:12.174Z,2.80
2018-05-25T04:32:40.936Z,3.93
2018-05-25T04:35:09.345Z,3.43
2018-05-25T04:37:37.688Z,3.73
2018-05-25T04:40:06.123Z,3.57
2018-05-25T04:42:34.509Z,3.80
2018-05-25T04:45:02.869Z,3.20
2018-05-25T04:47:31.632Z,3.20
2018-05-25T04:49:59.986Z,3.10
2018-05-25T04:52:28.450Z,3.60
2018-05-25T04:54:57.218Z,3.57
2018-05-25T04:57:25.596Z,3.67
2018-05-25T04:59:53.958Z,2.97
2018-05-25T05:02:22.772Z,3.20
2018-05-25T05:04:51.143Z,3.33
2018-05-25T05:07:19.910Z,3.10
2018-05-25T05:09:48.714Z,3.20
2018-05-25T05:12:17.465Z,3.40
2018-05-25T05:14:45.883Z,3.30
2018-05-25T05:17:14.623Z,3.27
2018-05-25T05:19:42.995Z,3.00
2018-05-25T05:22:11.369Z,3.07
2018-05-25T05:24:39.730Z,2.73
2018-05-25T05:27:08.113Z,3.20
2018-05-25T05:29:36.499Z,2.60
2018-05-25T05:32:04.909Z,3.20
2018-05-25T05:34:33.294Z,3.43
2018-05-25T05:37:01.757Z,3.50
2018-05-25T05:39:30.117Z,2.97
2018-05-25T05:41:58.542Z,3.30
2018-05-25T05:44:26.991Z,3.17
2018-05-25T05:46:55.439Z,3.30
2018-05-25T05:49:23.801Z,3.20
2018-05-25T05:51:52.175Z,3.07
2018-05-25T05:54:20.943Z,3.30
2018-05-25T05:56:49.343Z,3.30
2018-05-25T05:59:17.807Z,2.57
2018-05-25T06:01:46.160Z,2.57
2018-05-25T06:04:14.540Z,3.10
2018-05-25T06:06:42.917Z,2.83
2018-05-25T06:09:11.374Z,3.00
2018-05-25T06:11:39.766Z,2.47
2018-05-25T06:14:08.157Z,2.97
2018-05-25T06:16:36.536Z,2.70
2018-05-25T06:19:04.942Z,2.93
2018-05-25T06:21:33.769Z,2.40
2018-05-25T06:24:02.130Z,2.70
2018-05-25T06:26:30.892Z,2.67
2018-05-25T06:28:59.248Z,2.87
2018-05-25T06:31:27.615Z,3.30
2018-05-25T06:33:55.974Z,2.70
2018-05-25T06:36:24.351Z,2.40
2018-05-25T06:38:52.727Z,2.77
2018-05-25T06:41:21.130Z,3.10
2018-05-25T06:43:49.490Z,3.07
2018-05-25T06:46:17.925Z,2.97
2018-05-25T06:48:46.748Z,2.70
2018-05-25T06:51:15.125Z,2.60
2018-05-25T06:53:43.551Z,2.80
2018-05-25T06:56:12.138Z,2.33
2018-05-25T06:58:40.490Z,2.67
2018-05-25T07:01:08.870Z,2.70
2018-05-25T07:03:37.232Z,2.83
2018-05-25T07:06:05.646Z,2.80
2018-05-25T07:08:34.094Z,2.67
2018-05-25T07:11:02.521Z,2.87
2018-05-25T07:13:30.999Z,2.70
2018-05-25T07:15:59.468Z,2.30
2018-05-25T07:18:27.887Z,2.40
2018-05-25T07:20:56.655Z,2.60
2018-05-25T07:23:25.241Z,2.30
2018-05-25T07:25:53.618Z,2.33
2018-05-25T07:28:21.991Z,2.33
2018-05-25T07:30:50.373Z,2.47
2018-05-25T07:33:19.003Z,2.20
2018-05-25T07:35:47.405Z,2.30
2018-05-25T07:38:15.775Z,2.87
2018-05-25T07:40:44.164Z,2.50
2018-05-25T07:43:12.525Z,2.20
2018-05-25T07:45:49.195Z,2.60
2018-05-25T07:48:17.579Z,2.87
2018-05-25T07:50:46.062Z,2.83
2018-05-25T07:53:14.431Z,2.00
2018-05-25T07:55:42.864Z,2.70
2018-05-25T07:58:11.261Z,2.00
2018-05-25T08:00:40.039Z,1.63
2018-05-25T08:03:08.499Z,2.10
2018-05-25T08:05:36.982Z,2.40
2018-05-25T08:08:05.568Z,2.10
2018-05-25T08:10:33.963Z,1.83
2018-05-25T08:13:02.756Z,2.27
2018-05-25T08:15:31.147Z,1.67
2018-05-25T08:17:59.530Z,2.27
2018-05-25T08:20:27.911Z,2.17
2018-05-25T08:22:56.386Z,2.00
2018-05-25T08:25:24.774Z,1.97
2018-05-25T08:27:53.261Z,2.10
2018-05-25T08:30:22.494Z,1.93
2018-05-25T08:32:50.929Z,1.90
2018-05-25T08:35:19.338Z,1.77
2018-05-25T08:37:47.856Z,1.93
2018-05-25T08:40:16.716Z,1.50
2018-05-25T08:42:45.134Z,2.03
2018-05-25T08:45:13.525Z,2.13
2018-05-25T08:47:41.913Z,2.43
2018-05-25T08:50:10.786Z,2.73
2018-05-25T08:52:39.170Z,2.23
2018-05-25T08:55:07.659Z,2.10
2018-05-25T08:57:36.438Z,2.00
2018-05-25T09:00:04.836Z,2.13
2018-05-25T09:02:33.610Z,1.60
2018-05-25T09:05:01.975Z,1.90
2018-05-25T09:07:30.354Z,1.70
2018-05-25T09:09:58.733Z,2.20
2018-05-25T09:12:27.184Z,2.00
2018-05-25T09:14:55.955Z,1.40
2018-05-25T09:17:24.403Z,1.67
2018-05-25T09:19:52.796Z,1.97
2018-05-25T09:22:21.571Z,2.40
2018-05-25T09:24:50.013Z,1.73
2018-05-25T09:27:18.466Z,2.30
2018-05-25T09:29:46.859Z,1.47
2018-05-25T09:32:15.266Z,1.77
2018-05-25T09:34:43.630Z,2.20
2018-05-25T09:37:11.998Z,1.97
2018-05-25T09:39:40.389Z,1.70
2018-05-25T09:42:08.819Z,2.17
2018-05-25T09:44:37.659Z,1.97
2018-05-25T09:47:06.024Z,1.90
2018-05-25T09:49:34.412Z,2.70
2018-05-25T09:52:02.816Z,1.70
2018-05-25T09:54:31.195Z,1.50
2018-05-25T09:57:01.647Z,1.23
2018-05-25T09:59:30.421Z,2.20
2018-05-25T10:01:58.836Z,1.80
2018-05-25T10:04:27.253Z,1.50
2018-05-25T10:06:55.623Z,1.20
2018-05-25T10:09:24.002Z,1.33
2018-05-25T10:11:52.375Z,1.70
2018-05-25T10:14:20.766Z,1.93
2018-05-25T10:16:49.139Z,2.00
2018-05-25T10:19:17.487Z,1.73
2018-05-25T10:21:45.856Z,1.27
2018-05-25T10:24:14.221Z,1.50
2018-05-25T10:26:42.600Z,1.67
2018-05-25T10:29:11.367Z,1.83
2018-05-25T10:31:39.848Z,2.40
2018-05-25T10:34:08.218Z,2.00
2018-05-25T10:36:36.590Z,2.50
2018-05-25T10:39:05.569Z,2.50
2018-05-25T10:41:33.987Z,1.83
2018-05-25T10:44:02.366Z,2.33
2018-05-25T10:46:30.743Z,1.70
2018-05-25T10:48:59.127Z,2.00
2018-05-25T10:51:27.949Z,2.23
2018-05-25T10:53:56.323Z,1.77
2018-05-25T10:56:24.701Z,2.33
2018-05-25T10:58:53.062Z,2.83
2018-05-25T11:01:21.919Z,2.10
2018-05-25T11:03:50.349Z,2.60
2018-05-25T11:06:18.767Z,2.40
2018-05-25T11:08:47.159Z,2.30
2018-05-25T11:11:15.536Z,2.33
2018-05-25T11:13:43.916Z,2.60
2018-05-25T11:16:12.308Z,2.17
2018-05-25T11:18:40.658Z,2.57
2018-05-25T11:21:09.079Z,2.20
2018-05-25T11:23:37.977Z,2.17
2018-05-25T11:26:06.797Z,2.30
2018-05-25T11:28:35.175Z,2.60
2018-05-25T11:31:03.590Z,3.00
2018-05-25T11:33:31.968Z,4.33
2018-05-25T11:36:00.336Z,3.10
2018-05-25T11:38:28.698Z,3.60
2018-05-25T11:40:57.105Z,2.93
2018-05-25T11:43:25.504Z,2.87
2018-05-25T11:45:53.914Z,3.90
2018-05-25T11:48:22.307Z,3.03
2018-05-25T11:50:50.721Z,3.43
2018-05-25T11:53:19.090Z,3.20
2018-05-25T11:55:47.479Z,2.53
2018-05-25T11:58:15.892Z,2.93
2018-05-25T12:00:44.663Z,2.60
2018-05-25T12:03:13.545Z,2.97
2018-05-25T12:05:41.926Z,2.60
2018-05-25T12:08:10.301Z,3.03
2018-05-25T12:10:38.764Z,2.40
2018-05-25T12:13:07.137Z,2.90
2018-05-25T12:15:35.515Z,2.40
2018-05-25T12:18:03.914Z,2.77
2018-05-25T12:20:32.300Z,2.60
2018-05-25T12:23:00.690Z,2.70
2018-05-25T12:25:29.066Z,3.07
2018-05-25T12:27:57.418Z,2.40
2018-05-25T12:30:25.796Z,3.57
2018-05-25T12:32:54.166Z,2.70
2018-05-25T12:35:22.574Z,3.00
2018-05-25T12:37:51.114Z,2.67
2018-05-25T12:40:19.517Z,2.23
2018-05-25T12:42:48.050Z,2.87
2018-05-25T12:45:17.097Z,2.77
2018-05-25T12:47:45.536Z,2.60
2018-05-25T12:50:13.922Z,2.67
2018-05-25T12:52:42.308Z,2.60
2018-05-25T12:55:10.721Z,2.30
2018-05-25T12:57:39.211Z,2.53
2018-05-25T13:00:07.650Z,2.40
2018-05-25T13:02:36.042Z,2.77
2018-05-25T13:05:05.957Z,3.40
2018-05-25T13:07:34.346Z,3.10
2018-05-25T13:10:02.706Z,2.60
2018-05-25T13:12:31.099Z,2.63
2018-05-25T13:14:59.464Z,2.30
2018-05-25T13:17:27.840Z,2.70
2018-05-25T13:19:56.195Z,2.40
2018-05-25T13:22:24.989Z,3.80
2018-05-25T13:27:27.991Z,2.70
2018-05-25T13:29:56.363Z,2.57
2018-05-25T13:32:24.807Z,2.60
2018-05-25T13:34:53.174Z,2.63
2018-05-25T13:37:21.544Z,2.57
2018-05-25T13:39:49.914Z,3.00
2018-05-25T13:44:59.319Z,2.80
2018-05-25T13:47:28.102Z,3.40
2018-05-25T13:49:56.469Z,2.93
2018-05-25T13:52:24.834Z,3.10
2018-05-25T13:54:53.219Z,3.57
2018-05-25T13:57:21.590Z,2.90
2018-05-25T13:59:49.966Z,4.17
2018-05-25T14:02:18.353Z,2.97
2018-05-25T14:04:46.780Z,2.60
2018-05-25T14:07:15.155Z,3.30
2018-05-25T14:09:43.525Z,3.70
2018-05-25T14:12:12.290Z,3.93
2018-05-25T14:14:40.655Z,3.60
2018-05-25T14:17:09.039Z,2.90
2018-05-25T14:19:37.421Z,2.83
2018-05-25T14:57:38.795Z,3.40
2018-05-25T15:03:04.699Z,3.20
2018-05-25T15:05:33.103Z,3.30
2018-05-25T15:08:01.496Z,3.00
2018-05-25T15:10:29.947Z,2.80
2018-05-25T15:12:58.333Z,3.67
2018-05-25T15:15:26.704Z,3.80
2018-05-25T15:17:55.078Z,2.87
2018-05-25T15:20:23.490Z,3.10
2018-05-25T15:22:51.867Z,2.73
2018-05-25T15:25:20.233Z,2.80
2018-05-25T15:27:48.663Z,3.47
2018-05-25T15:30:17.103Z,3.00
2018-05-25T15:32:45.761Z,2.67
2018-05-25T15:35:14.599Z,2.97
2018-05-25T15:37:42.965Z,2.80
2018-05-25T15:40:11.327Z,2.80
2018-05-25T15:42:40.389Z,2.97
2018-05-25T15:45:09.162Z,2.57
2018-05-25T15:47:37.659Z,3.10
2018-05-25T15:50:06.010Z,3.33
2018-05-25T15:52:34.375Z,3.33
2018-05-25T15:55:02.849Z,3.53
2018-05-25T15:57:31.215Z,3.30
2018-05-25T15:59:59.613Z,3.37
2018-05-25T16:02:27.997Z,2.80
2018-05-25T16:04:56.438Z,3.40
2018-05-25T16:07:25.385Z,3.00
2018-05-25T16:09:53.842Z,3.20
2018-05-25T16:12:22.214Z,3.07
2018-05-25T16:14:50.594Z,2.90
2018-05-25T16:17:19.010Z,3.33
2018-05-25T16:19:47.783Z,2.63
2018-05-25T16:22:16.142Z,2.90
2018-05-25T16:24:44.519Z,2.97
2018-05-25T16:27:12.869Z,3.30
2018-05-25T16:29:42.269Z,2.93
2018-05-25T16:32:10.669Z,3.30
2018-05-25T16:34:39.037Z,3.50
2018-05-25T16:37:07.400Z,3.53
2018-05-25T16:39:35.764Z,3.30
2018-05-25T16:42:04.532Z,3.20
2018-05-25T16:44:32.931Z,3.27
2018-05-25T16:47:01.687Z,3.77
2018-05-25T16:49:30.054Z,3.90
2018-05-25T16:51:58.423Z,3.47
2018-05-25T16:54:26.795Z,2.83
2018-05-25T16:56:55.156Z,3.50
2018-05-25T16:59:23.539Z,3.67
2018-05-25T17:01:51.947Z,3.20
2018-05-25T17:04:20.332Z,2.90
2018-05-25T17:06:48.731Z,3.60
2018-05-25T17:09:17.091Z,3.13
2018-05-25T17:11:45.457Z,3.87
2018-05-25T17:14:13.872Z,3.50
2018-05-25T17:16:42.657Z,3.80
2018-05-25T17:19:11.038Z,3.93
2018-05-25T17:21:39.814Z,2.70
2018-05-25T17:24:08.182Z,3.10
2018-05-25T17:26:36.549Z,3.90
2018-05-25T17:29:04.948Z,3.03
2018-05-25T17:31:33.342Z,3.30
2018-05-25T17:34:02.169Z,2.90
2018-05-25T17:36:30.514Z,2.83
2018-05-25T17:38:59.304Z,2.50
2018-05-25T17:41:27.657Z,2.37
2018-05-25T17:43:56.169Z,2.67
2018-05-25T17:46:24.612Z,2.53
2018-05-25T17:48:53.035Z,2.80
2018-05-25T17:51:21.797Z,2.93
2018-05-25T17:53:50.169Z,2.87
2018-05-25T17:56:18.535Z,2.80
2018-05-25T17:58:46.919Z,3.30
2018-05-25T18:01:15.279Z,3.30
2018-05-25T18:03:43.713Z,2.87
2018-05-25T18:06:12.496Z,3.30
2018-05-25T18:08:41.268Z,3.03
2018-05-25T18:11:09.615Z,3.10
2018-05-25T18:13:37.986Z,2.50
2018-05-25T18:16:06.364Z,3.10
2018-05-25T18:18:34.742Z,3.03
2018-05-25T18:21:03.125Z,3.80
2018-05-25T18:23:31.524Z,3.00
2018-05-25T18:25:59.890Z,4.33
2018-05-25T18:28:28.310Z,3.27
2018-05-25T18:30:57.109Z,3.40
2018-05-25T18:33:25.515Z,3.47
2018-05-25T18:35:53.913Z,3.53
2018-05-25T18:38:22.270Z,3.40
2018-05-25T18:40:50.655Z,3.40
2018-05-25T18:43:19.083Z,3.20
2018-05-25T18:45:47.454Z,3.33
2018-05-25T18:48:15.804Z,3.50
2018-05-25T18:50:44.310Z,3.67
2018-05-25T18:53:12.673Z,3.30
2018-05-25T18:55:41.039Z,3.37
2018-05-25T18:58:09.459Z,3.30
2018-05-25T19:00:37.809Z,3.67
2018-05-25T19:03:06.215Z,3.83
2018-05-25T19:05:34.586Z,3.57
2018-05-25T19:08:02.983Z,3.23
2018-05-25T19:10:31.409Z,2.70
2018-05-25T19:12:59.766Z,3.43
2018-05-25T19:15:28.210Z,3.00
2018-05-25T19:17:56.579Z,3.60
2018-05-25T19:20:24.970Z,3.03
2018-05-25T19:22:53.319Z,3.30
2018-05-25T19:25:21.676Z,3.30
2018-05-25T19:27:50.031Z,3.37
2018-05-25T19:30:18.845Z,4.10
2018-05-25T19:32:47.206Z,3.80
2018-05-25T19:35:15.577Z,3.10
2018-05-25T19:37:44.354Z,3.37
2018-05-25T19:40:13.117Z,3.30
2018-05-25T19:42:41.494Z,4.03
2018-05-25T19:45:09.905Z,4.10
2018-05-25T19:47:38.278Z,4.40
2018-05-25T19:50:07.139Z,3.70
2018-05-25T19:52:35.524Z,3.50
2018-05-25T19:55:03.917Z,4.00
2018-05-25T19:57:32.368Z,4.27
2018-05-25T20:00:00.761Z,3.50
2018-05-25T20:02:29.138Z,3.20
2018-05-25T20:04:57.515Z,3.47
2018-05-25T20:07:25.884Z,4.03
2018-05-25T20:09:54.274Z,3.83
2018-05-25T20:12:22.641Z,3.60
2018-05-25T20:14:51.017Z,3.93
2018-05-25T20:17:19.429Z,3.70
2018-05-25T20:19:47.910Z,4.17
2018-05-25T20:22:16.382Z,3.50
2018-05-25T20:24:44.763Z,4.67
2018-05-25T20:27:13.122Z,4.60
2018-05-25T20:29:41.504Z,4.57
2018-05-25T20:32:09.890Z,4.13
2018-05-25T20:34:38.266Z,4.17
2018-05-25T20:37:06.750Z,5.10
2018-05-25T20:39:35.122Z,3.83
2018-05-25T20:42:03.536Z,3.57
2018-05-25T20:44:32.297Z,4.00
2018-05-25T20:47:00.680Z,3.70
2018-05-25T20:49:29.062Z,3.50
2018-05-25T20:51:57.633Z,4.00
2018-05-25T20:54:26.006Z,3.80
2018-05-25T20:56:54.381Z,3.63
2018-05-25T20:59:22.761Z,3.83
2018-05-25T21:01:51.137Z,4.07
2018-05-25T21:04:19.503Z,3.93
2018-05-25T21:06:47.895Z,4.20
2018-05-25T21:09:16.357Z,3.53
2018-05-25T21:11:44.727Z,3.70
2018-05-25T21:14:13.169Z,3.80
2018-05-25T21:16:42.045Z,3.50
2018-05-25T21:19:10.416Z,4.30
2018-05-25T21:21:38.813Z,3.43
2018-05-25T21:24:07.214Z,3.93
2018-05-25T21:26:35.990Z,4.13
2018-05-25T21:29:04.747Z,3.80
2018-05-25T21:31:33.230Z,4.20
2018-05-25T21:34:01.608Z,3.67
2018-05-25T21:36:30.005Z,4.37
2018-05-25T21:38:58.372Z,4.57
2018-05-25T21:41:26.734Z,3.77
2018-05-25T21:43:55.107Z,4.03
2018-05-25T21:46:23.495Z,4.10
2018-05-25T21:48:51.878Z,4.60
2018-05-25T21:51:20.250Z,4.40
2018-05-25T21:53:48.650Z,4.57
2018-05-25T21:56:17.022Z,3.33
2018-05-25T21:58:45.398Z,4.33
2018-05-25T22:01:13.862Z,4.80
2018-05-25T22:03:42.490Z,4.73
2018-05-25T22:06:11.486Z,4.43
2018-05-25T22:08:40.914Z,4.40
2018-05-25T22:11:10.462Z,4.90
2018-05-25T22:13:39.016Z,5.00
2018-05-25T22:16:07.410Z,3.93
2018-05-25T22:18:35.992Z,4.30
2018-05-25T22:21:04.986Z,5.10
2018-05-25T22:23:33.715Z,4.37
2018-05-25T22:26:02.184Z,5.07
2018-05-25T22:28:30.548Z,4.53
2018-05-25T22:30:58.958Z,5.30
2018-05-25T22:33:27.675Z,5.30
2018-05-25T22:35:56.510Z,5.20
2018-05-25T22:38:26.071Z,5.13
2018-05-25T22:40:55.375Z,5.57
2018-05-25T22:43:41.404Z,5.37
2018-05-25T22:46:29.253Z,5.40
2018-05-25T22:49:16.949Z,5.93
2018-05-25T22:52:04.153Z,6.63
2018-05-25T22:54:38.242Z,5.10
2018-05-25T22:57:06.662Z,5.30
2018-05-25T22:59:35.275Z,5.33
2018-05-25T23:02:03.792Z,5.70
2018-05-25T23:04:32.971Z,5.17
2018-05-25T23:07:16.997Z,5.10
2018-05-25T23:09:46.500Z,5.60
2018-05-25T23:12:16.370Z,5.50
2018-05-25T23:14:45.240Z,5.50
2018-05-25T23:17:14.120Z,5.87
2018-05-25T23:19:42.897Z,6.00
2018-05-25T23:22:12.240Z,5.70
2018-05-25T23:24:41.803Z,5.93
2018-05-25T23:27:11.703Z,6.63
2018-05-25T23:29:40.288Z,5.20
2018-05-25T23:32:09.678Z,6.10
2018-05-25T23:34:39.076Z,6.87
2018-05-25T23:37:08.766Z,5.53
2018-05-25T23:39:38.022Z,6.70
2018-05-25T23:42:07.644Z,6.47
2018-05-25T23:44:37.569Z,5.93
2018-05-25T23:47:07.185Z,7.00
2018-05-25T23:49:37.314Z,6.73
2018-05-25T23:52:06.502Z,6.43
2018-05-25T23:54:35.401Z,6.30
2018-05-25T23:57:04.506Z,6.60
2018-05-25T23:59:33.020Z,6.80
